Time;durP1;ratioP1;P1;durP2;ratioP2;P2;SDS_P1;SDS_P2;PMS_P1;PMS_P2;Temp;Humidity;BMP_temperature;BMP_pressure;BME280_temperature;BME280_humidity;BME280_pressure;Samples;Min_cycle;Max_cycle;Signal;HPM_P1;HPM_P2
2022/03/28 00:03:37;;;;;;;28.15;17.02;;;;;;;3.01;89.27;102505.25;10495502;28;20068;-77
2022/03/28 00:08:37;;;;;;;32.92;17.05;;;;;;;2.92;89.62;102505.16;10495834;28;20174;-78
2022/03/28 00:13:38;;;;;;;36.10;16.52;;;;;;;2.90;89.47;102498.94;10495023;28;20380;-77
2022/03/28 00:18:38;;;;;;;33.33;16.20;;;;;;;2.82;89.40;102493.72;10494468;28;20167;-77
2022/03/28 00:23:39;;;;;;;42.85;20.85;;;;;;;2.71;89.79;102485.75;10494714;28;20029;-77
2022/03/28 00:28:39;;;;;;;31.27;16.75;;;;;;;2.63;89.57;102486.59;10494184;28;20509;-78
2022/03/28 00:33:40;;;;;;;32.33;18.05;;;;;;;2.55;89.49;102478.03;10495426;28;20055;-77
2022/03/28 00:38:40;;;;;;;39.75;19.70;;;;;;;2.53;89.79;102464.03;10494937;28;20060;-77
2022/03/28 00:43:57;;;;;;;39.35;21.10;;;;;;;2.49;89.88;102464.44;10494646;28;20067;-77
2022/03/28 00:48:57;;;;;;;30.73;19.23;;;;;;;2.55;90.94;102456.44;10493731;28;20071;-77
2022/03/28 00:53:58;;;;;;;29.52;16.80;;;;;;;2.53;90.74;102450.19;10494921;28;20071;-77
2022/03/28 00:58:59;;;;;;;36.95;19.35;;;;;;;2.59;91.42;102461.19;10494139;28;20090;-77
2022/03/28 01:03:59;;;;;;;36.42;19.83;;;;;;;2.48;91.00;102440.28;10477174;28;20076;-77
2022/03/28 01:09:01;;;;;;;42.22;22.77;;;;;;;2.43;91.05;102435.38;10490903;28;20035;-77
2022/03/28 01:14:01;;;;;;;39.22;21.77;;;;;;;2.47;91.73;102430.72;10476350;28;20040;-77
2022/03/28 01:19:02;;;;;;;38.90;20.60;;;;;;;2.52;91.46;102423.41;10493854;28;20090;-77
2022/03/28 01:24:02;;;;;;;39.40;17.92;;;;;;;2.51;91.50;102425.88;10476466;28;20123;-77
2022/03/28 01:29:03;;;;;;;34.22;20.77;;;;;;;2.51;91.38;102421.59;10494157;28;20036;-77
2022/03/28 01:34:04;;;;;;;30.60;17.25;;;;;;;2.31;90.83;102411.75;10475657;28;20028;-77
2022/03/28 01:39:04;;;;;;;40.22;20.88;;;;;;;2.23;91.91;102410.03;10458304;28;20024;-77
2022/03/28 01:44:05;;;;;;;37.00;20.33;;;;;;;2.14;91.37;102402.19;10500694;28;20040;-77
2022/03/28 01:49:06;;;;;;;34.10;20.90;;;;;;;2.08;91.92;102401.53;10496461;28;20110;-77
2022/03/28 01:54:07;;;;;;;40.38;24.25;;;;;;;1.95;91.70;102400.22;10497802;28;20081;-77
2022/03/28 01:59:07;;;;;;;38.28;20.33;;;;;;;1.81;91.59;102396.19;10500359;28;20033;-77
2022/03/28 02:04:08;;;;;;;40.67;24.83;;;;;;;1.89;91.92;102387.59;10482223;28;20032;-77
2022/03/28 02:09:08;;;;;;;42.17;23.70;;;;;;;1.83;91.88;102391.16;10500504;28;20048;-77
2022/03/28 02:14:09;;;;;;;41.15;21.75;;;;;;;1.71;92.19;102388.19;10483372;28;20383;-77
2022/03/28 02:19:09;;;;;;;47.67;23.48;;;;;;;1.65;91.92;102388.44;10499626;28;20063;-77
2022/03/28 02:24:10;;;;;;;40.92;21.25;;;;;;;1.81;92.67;102375.53;10500050;28;20102;-77
2022/03/28 02:29:10;;;;;;;42.08;21.67;;;;;;;1.79;92.58;102378.69;10499693;28;20028;-77
2022/03/28 02:34:11;;;;;;;37.97;20.63;;;;;;;1.79;92.74;102365.78;10500076;28;20063;-77
2022/03/28 02:39:11;;;;;;;36.13;19.35;;;;;;;1.76;93.17;102375.03;10498972;28;20031;-77
2022/03/28 02:44:12;;;;;;;44.92;25.08;;;;;;;1.68;93.60;102370.69;10499678;28;20032;-77
2022/03/28 02:49:13;;;;;;;51.95;26.85;;;;;;;1.56;93.19;102365.16;10498211;28;20135;-77
2022/03/28 02:54:14;;;;;;;46.92;29.08;;;;;;;1.49;93.19;102359.16;10498859;28;20473;-77
2022/03/28 02:59:14;;;;;;;55.45;27.08;;;;;;;1.32;93.20;102350.50;10498616;28;20031;-77
2022/03/28 03:04:15;;;;;;;49.67;26.35;;;;;;;1.24;93.51;102348.75;10498478;28;20097;-77
2022/03/28 03:09:15;;;;;;;48.00;27.83;;;;;;;1.30;93.90;102342.59;10497944;28;20075;-77
2022/03/28 03:14:16;;;;;;;49.60;27.88;;;;;;;1.26;93.67;102334.34;10497574;28;20123;-77
2022/03/28 03:19:16;;;;;;;48.83;29.85;;;;;;;1.13;93.43;102322.69;10496941;28;20035;-77
2022/03/28 03:24:17;;;;;;;51.38;29.42;;;;;;;1.06;93.00;102332.19;10498187;28;20036;-77
2022/03/28 03:29:17;;;;;;;54.58;30.60;;;;;;;1.04;93.13;102325.94;10496712;28;20128;-77
2022/03/28 03:34:18;;;;;;;59.92;31.33;;;;;;;1.08;93.08;102330.69;10496856;28;20059;-77
2022/03/28 03:39:18;;;;;;;69.30;30.13;;;;;;;0.99;94.01;102321.19;10496885;28;20071;-77
2022/03/28 03:44:19;;;;;;;42.42;26.50;;;;;;;0.90;94.10;102316.69;10495982;28;20024;-77
2022/03/28 03:49:19;;;;;;;43.45;25.83;;;;;;;0.84;94.11;102304.94;10422507;28;20568;-77
2022/03/28 03:54:20;;;;;;;67.32;34.30;;;;;;;0.91;93.87;102311.72;10414101;28;20036;-77
2022/03/28 03:59:20;;;;;;;45.22;25.08;;;;;;;0.81;94.44;102304.63;10413323;28;20496;-77
2022/03/28 04:04:21;;;;;;;46.45;29.20;;;;;;;0.79;93.92;102300.94;10412917;28;20079;-77
2022/03/28 04:09:22;;;;;;;45.33;24.98;;;;;;;0.79;94.71;102297.47;10413265;28;20507;-77
2022/03/28 04:14:23;;;;;;;47.08;27.42;;;;;;;0.65;94.87;102291.72;10413197;28;20030;-77
2022/03/28 04:19:23;;;;;;;55.80;25.75;;;;;;;0.62;94.35;102299.09;10412963;28;20056;-77
2022/03/28 04:24:24;;;;;;;45.95;25.95;;;;;;;0.50;94.34;102287.44;10412487;28;20519;-78
2022/03/28 04:29:24;;;;;;;42.95;24.80;;;;;;;0.49;94.21;102283.94;10412279;28;20065;-77
2022/03/28 04:34:25;;;;;;;49.78;24.40;;;;;;;0.46;94.64;102288.75;10412972;28;20519;-77
2022/03/28 04:39:25;;;;;;;55.60;26.63;;;;;;;0.43;93.97;102285.81;10411306;28;20057;-77
2022/03/28 04:44:26;;;;;;;44.17;26.15;;;;;;;0.48;94.29;102274.38;10411877;28;20060;-77
2022/03/28 04:49:26;;;;;;;34.67;22.08;;;;;;;0.52;94.49;102279.13;10475195;28;20082;-77
2022/03/28 04:54:27;;;;;;;59.25;28.77;;;;;;;0.50;94.89;102285.75;10474121;28;20092;-77
2022/03/28 04:59:28;;;;;;;48.92;26.05;;;;;;;0.50;94.79;102285.75;10494527;28;20464;-78
2022/03/28 05:04:28;;;;;;;44.30;28.70;;;;;;;0.49;94.68;102277.88;10494025;28;20036;-79
2022/03/28 05:09:29;;;;;;;51.28;27.95;;;;;;;0.48;95.10;102287.25;10495104;28;20111;-78
2022/03/28 05:14:30;;;;;;;64.45;32.03;;;;;;;0.58;95.27;102281.47;10476951;28;20399;-79
2022/03/28 05:19:30;;;;;;;69.03;34.05;;;;;;;0.48;95.66;102281.19;10500742;28;20067;-78
2022/03/28 05:24:31;;;;;;;70.85;37.38;;;;;;;0.47;95.44;102274.22;10474404;28;20104;-78
2022/03/28 05:29:31;;;;;;;74.93;37.85;;;;;;;0.41;95.12;102282.16;10495303;28;20174;-78
2022/03/28 05:34:32;;;;;;;73.03;38.67;;;;;;;0.43;95.37;102285.81;10500530;28;20032;-79
2022/03/28 05:39:33;;;;;;;60.13;35.80;;;;;;;0.53;95.56;102291.25;10500581;28;20025;-77
2022/03/28 05:44:34;;;;;;;68.57;33.65;;;;;;;0.62;95.31;102281.06;10501043;28;20036;-76
2022/03/28 05:49:35;;;;;;;73.70;41.60;;;;;;;0.84;95.81;102267.97;10426170;28;20095;-75
2022/03/28 05:54:35;;;;;;;76.43;38.60;;;;;;;0.97;95.68;102272.78;10416617;28;20038;-75
2022/03/28 05:59:45;;;;;;;70.03;36.70;;;;;;;1.07;95.69;102280.75;10416706;28;20076;-76
2022/03/28 06:04:45;;;;;;;67.28;35.05;;;;;;;1.26;96.29;102270.78;10415793;28;20036;-75
2022/03/28 06:09:46;;;;;;;75.47;38.13;;;;;;;1.64;95.61;102274.72;10401326;28;20366;-76
2022/03/28 06:14:46;;;;;;;71.82;36.97;;;;;;;2.36;96.04;102260.69;10402703;28;20061;-80
2022/03/28 06:19:47;;;;;;;53.22;31.52;;;;;;;3.18;96.50;102257.69;10405678;28;20480;-78
2022/03/28 06:24:48;;;;;;;32.08;19.83;;;;;;;4.61;94.87;102261.00;10408011;28;20068;-78
2022/03/28 06:29:48;;;;;;;27.30;17.70;;;;;;;5.81;86.18;102251.97;10411512;28;20104;-78
2022/03/28 06:34:50;;;;;;;27.08;18.25;;;;;;;6.21;76.11;102252.00;10403017;28;20072;-78
2022/03/28 06:39:51;;;;;;;21.05;15.27;;;;;;;7.62;76.38;102248.22;10401753;28;20480;-78
2022/03/28 06:44:51;;;;;;;20.17;15.15;;;;;;;8.37;69.15;102242.91;10402246;28;20120;-77
2022/03/28 06:50:01;;;;;;;23.83;13.85;;;;;;;9.04;66.99;102247.13;10472754;28;20036;-78
2022/03/28 06:55:02;;;;;;;28.40;16.90;;;;;;;10.06;63.55;102241.53;10487950;28;21903;-78
2022/03/28 07:00:04;;;;;;;29.52;15.65;;;;;;;10.88;61.09;102241.13;10479741;28;20035;-77
2022/03/28 07:05:06;;;;;;;27.23;15.32;;;;;;;12.61;57.34;102224.22;10468602;28;20550;-78
2022/03/28 07:10:06;;;;;;;26.17;15.43;;;;;;;13.50;54.39;102219.81;10487090;28;20414;-76
2022/03/28 07:15:10;;;;;;;29.33;17.58;;;;;;;13.82;52.43;102214.56;10467426;28;20041;-76
2022/03/28 07:20:11;;;;;;;29.48;17.27;;;;;;;13.33;54.00;102213.53;10483417;28;20039;-76
2022/03/28 07:25:18;;;;;;;28.98;16.27;;;;;;;14.89;50.54;102205.34;10480954;28;20016;-77
2022/03/28 07:30:19;;;;;;;33.75;19.80;;;;;;;14.93;49.70;102201.16;10489947;28;20035;-75
2022/03/28 07:35:21;;;;;;;34.72;21.65;;;;;;;15.92;47.90;102198.09;10494810;28;20031;-78
2022/03/28 07:40:25;;;;;;;42.70;28.33;;;;;;;16.42;46.87;102195.94;10496133;28;20036;-76
2022/03/28 07:45:28;;;;;;;44.35;25.13;;;;;;;17.05;45.12;102188.06;10491021;28;20472;-77
2022/03/28 07:50:30;;;;;;;31.38;19.98;;;;;;;17.34;44.09;102185.72;10493081;28;20504;-76
2022/03/28 07:55:32;;;;;;;38.10;22.20;;;;;;;17.31;43.55;102174.19;10510021;28;20044;-77
2022/03/28 08:00:32;;;;;;;36.07;23.03;;;;;;;17.38;42.94;102167.41;10491982;28;20544;-77
2022/03/28 08:05:33;;;;;;;36.63;23.75;;;;;;;18.42;42.04;102150.16;10474421;28;20051;-77
2022/03/28 08:10:34;;;;;;;33.07;20.33;;;;;;;19.18;40.41;102167.75;10492475;28;20036;-78
2022/03/28 08:15:35;;;;;;;34.93;21.93;;;;;;;20.07;38.41;102168.75;10481844;28;20044;-78
2022/03/28 08:20:35;;;;;;;32.50;22.03;;;;;;;18.44;42.54;102164.34;10490193;28;20148;-75
2022/03/28 08:25:36;;;;;;;46.40;25.57;;;;;;;18.99;41.07;102156.53;10453500;28;20033;-76
2022/03/28 08:30:37;;;;;;;35.00;22.37;;;;;;;19.60;39.74;102151.41;10454055;28;20025;-76
2022/03/28 08:35:37;;;;;;;30.93;20.27;;;;;;;19.61;40.42;102142.56;10436991;28;20325;-76
2022/03/28 08:40:41;;;;;;;28.70;20.30;;;;;;;18.86;41.58;102139.28;10467045;28;20361;-76
2022/03/28 08:45:45;;;;;;;30.73;20.77;;;;;;;18.68;42.67;102139.56;10446519;28;20108;-76
2022/03/28 08:50:52;;;;;;;34.13;22.10;;;;;;;19.40;41.58;102142.84;10454663;28;20525;-76
2022/03/28 08:55:52;;;;;;;36.17;22.92;;;;;;;20.90;37.63;102127.59;10444884;28;20553;-76
2022/03/28 09:00:53;;;;;;;31.07;20.47;;;;;;;21.98;36.55;102121.13;10493018;28;20085;-76
2022/03/28 09:05:54;;;;;;;26.93;20.17;;;;;;;22.91;34.42;102113.97;10517284;28;20067;-78
2022/03/28 09:10:54;;;;;;;28.40;19.93;;;;;;;23.04;34.42;102115.03;10491848;28;20520;-77
2022/03/28 09:15:56;;;;;;;30.47;21.03;;;;;;;22.52;36.26;102113.28;10492706;28;20031;-77
2022/03/28 09:20:58;;;;;;;32.97;21.27;;;;;;;23.57;32.68;102102.47;10474360;28;20043;-77
2022/03/28 09:25:58;;;;;;;30.85;21.75;;;;;;;23.67;33.63;102109.72;10466961;28;20032;-77
2022/03/28 09:30:59;;;;;;;28.37;22.17;;;;;;;24.03;33.39;102105.72;10479699;28;20077;-78
2022/03/28 09:36:03;;;;;;;32.97;22.90;;;;;;;24.16;31.93;102095.16;10473359;28;20089;-78
2022/03/28 09:41:04;;;;;;;29.80;20.65;;;;;;;24.73;30.27;102081.47;10466187;28;20310;-78
2022/03/28 09:46:04;;;;;;;32.77;24.60;;;;;;;25.23;29.15;102072.00;10441010;28;20040;-78
2022/03/28 09:51:05;;;;;;;29.87;21.67;;;;;;;24.02;32.04;102079.88;10487969;28;20105;-78
2022/03/28 09:56:07;;;;;;;31.80;22.33;;;;;;;24.24;31.54;102071.19;10489131;28;20024;-78
2022/03/28 10:01:21;;;;;;;26.63;19.75;;;;;;;23.80;31.85;102067.13;10471940;28;20059;-77
2022/03/28 10:06:21;;;;;;;27.15;19.55;;;;;;;24.68;30.62;102059.06;10496635;28;20040;-76
2022/03/28 10:11:22;;;;;;;29.30;19.70;;;;;;;24.97;31.50;102053.97;10498021;28;20302;-76
2022/03/28 10:16:22;;;;;;;25.17;17.90;;;;;;;26.26;27.80;102040.22;10495866;28;20024;-75
2022/03/28 10:21:26;;;;;;;27.50;21.47;;;;;;;26.51;29.01;102041.09;10496106;28;20093;-75
2022/03/28 10:26:45;;;;;;;28.17;20.17;;;;;;;25.97;29.19;102043.72;10496616;28;20064;-75
2022/03/28 10:31:51;;;;;;;29.17;21.75;;;;;;;26.61;28.58;102037.50;10496024;28;20021;-75
2022/03/28 10:36:52;;;;;;;28.48;22.98;;;;;;;26.58;29.95;102036.63;10496248;28;20042;-75
2022/03/28 10:41:52;;;;;;;33.00;24.27;;;;;;;25.69;31.68;102023.06;10476829;28;20139;-75
2022/03/28 10:47:03;;;;;;;31.30;23.07;;;;;;;26.25;30.38;102007.09;10496691;28;20091;-77
2022/03/28 10:52:04;;;;;;;32.87;21.80;;;;;;;26.73;29.95;101998.09;10452169;28;20032;-75
2022/03/28 10:57:05;;;;;;;35.17;22.50;;;;;;;25.24;30.84;101992.50;10494627;28;20326;-75
2022/03/28 11:02:05;;;;;;;30.67;21.77;;;;;;;25.39;30.98;101983.66;10460080;28;20093;-76
2022/03/28 11:07:11;;;;;;;31.23;22.60;;;;;;;26.68;28.00;101990.97;10438158;28;20063;-76
2022/03/28 11:12:37;;;;;;;31.17;23.67;;;;;;;27.62;27.01;101982.59;10474303;28;20037;-77
2022/03/28 11:17:39;;;;;;;38.90;25.38;;;;;;;26.62;29.06;101988.28;10486826;28;20028;-77
2022/03/28 11:22:47;;;;;;;33.05;21.60;;;;;;;27.22;28.04;101984.56;10460987;28;20444;-77
2022/03/28 11:27:48;;;;;;;32.70;21.67;;;;;;;27.27;27.64;101981.88;10495103;28;20042;-77
2022/03/28 11:32:49;;;;;;;36.23;26.67;;;;;;;27.24;27.00;101974.69;10490696;28;20024;-77
2022/03/28 11:37:54;;;;;;;37.20;26.30;;;;;;;27.27;28.47;101976.50;10538154;28;20031;-77
2022/03/28 11:42:56;;;;;;;35.65;21.98;;;;;;;26.62;29.90;101966.81;10518146;28;20486;-77
2022/03/28 11:47:58;;;;;;;36.42;22.70;;;;;;;27.02;27.35;101951.50;10535274;28;20043;-77
2022/03/28 11:53:01;;;;;;;41.03;25.80;;;;;;;27.65;28.56;101939.56;10454560;28;20056;-77
2022/03/28 11:58:16;;;;;;;37.60;25.00;;;;;;;27.98;27.84;101937.53;10455112;28;20125;-76
2022/03/28 12:03:17;;;;;;;36.05;24.90;;;;;;;27.27;29.21;101931.69;10453199;28;20472;-76
2022/03/28 12:08:18;;;;;;;35.40;22.77;;;;;;;25.59;29.70;101925.69;10492173;28;20041;-77
2022/03/28 12:13:20;;;;;;;34.22;23.85;;;;;;;24.91;33.22;101920.94;10496331;28;20021;-78
2022/03/28 12:18:20;;;;;;;;;;;;;;;26.10;31.94;101920.34;10494691;28;20036;-77
2022/03/28 12:23:22;;;;;;;35.83;23.90;;;;;;;25.48;31.04;101903.31;10461597;28;20361;-77
2022/03/28 12:28:33;;;;;;;31.10;23.35;;;;;;;27.09;29.74;101894.16;10453735;28;20028;-78
2022/03/28 12:33:38;;;;;;;37.80;23.92;;;;;;;27.21;29.71;101894.09;10454262;28;20091;-79
2022/03/28 12:38:40;;;;;;;33.15;24.33;;;;;;;27.06;28.91;101878.06;10436032;28;20025;-77
2022/03/28 12:43:48;;;;;;;35.47;24.20;;;;;;;25.19;33.57;101870.16;10520349;28;20030;-76
2022/03/28 12:48:50;;;;;;;39.10;25.83;;;;;;;26.55;31.38;101867.53;10516277;28;20380;-77
2022/03/28 12:54:01;;;;;;;37.30;27.35;;;;;;;26.59;30.01;101858.56;10500960;28;20129;-77
2022/03/28 12:59:03;;;;;;;31.02;22.52;;;;;;;26.58;29.50;101838.00;10493351;28;20055;-77
2022/03/28 13:04:11;;;;;;;32.05;22.08;;;;;;;26.53;29.87;101841.59;10450772;28;20053;-78
2022/03/28 13:09:12;;;;;;;34.45;25.40;;;;;;;25.81;31.80;101834.56;10490982;28;20115;-78
2022/03/28 13:14:30;;;;;;;37.20;24.95;;;;;;;25.24;30.61;101843.41;10494451;28;20025;-79
2022/03/28 13:19:30;;;;;;;38.05;23.95;;;;;;;24.66;31.49;101836.03;10479910;28;20149;-79
2022/03/28 13:24:31;;;;;;;38.80;24.77;;;;;;;24.22;33.33;101817.09;10512080;28;20429;-80
2022/03/28 13:29:32;;;;;;;34.78;22.67;;;;;;;24.38;32.00;101814.50;10485282;28;20098;-82
2022/03/28 13:34:33;;;;;;;35.03;22.43;;;;;;;26.12;28.19;101796.06;10485317;28;20413;-79
2022/03/28 13:39:34;;;;;;;32.77;23.27;;;;;;;25.93;28.60;101788.94;10512804;28;20073;-77
2022/03/28 13:44:34;;;;;;;30.33;20.90;;;;;;;26.11;29.68;101776.41;10477342;28;20035;-81
2022/03/28 13:49:35;;;;;;;32.07;22.07;;;;;;;25.93;28.25;101769.28;10467545;28;20133;-78
2022/03/28 13:54:38;;;;;;;35.60;22.80;;;;;;;24.98;29.03;101769.28;10492822;28;20434;-79
2022/03/28 13:59:39;;;;;;;39.50;23.05;;;;;;;24.56;32.06;101758.41;10497462;28;20052;-78
2022/03/28 14:04:47;;;;;;;42.53;24.27;;;;;;;24.92;30.02;101758.53;10530590;28;20101;-78
2022/03/28 14:09:48;;;;;;;35.20;21.05;;;;;;;24.58;30.76;101758.41;10485716;28;20275;-78
2022/03/28 14:14:53;;;;;;;31.00;21.37;;;;;;;24.83;31.01;101751.38;10437071;28;20033;-78
2022/03/28 14:19:54;;;;;;;37.53;22.17;;;;;;;24.80;30.25;101742.47;10471002;28;20039;-81
2022/03/28 14:24:54;;;;;;;30.35;21.35;;;;;;;24.61;30.10;101739.69;10496649;28;20035;-78
2022/03/28 14:29:55;;;;;;;33.23;20.93;;;;;;;23.49;32.26;101739.06;10495652;28;20675;-80
2022/03/28 14:34:58;;;;;;;29.40;20.93;;;;;;;23.75;31.16;101723.22;10491600;28;20028;-80
2022/03/28 14:39:59;;;;;;;29.67;19.98;;;;;;;24.52;30.54;101716.47;10487444;28;20033;-81
2022/03/28 14:44:59;;;;;;;27.23;20.50;;;;;;;24.41;30.83;101719.13;10456466;28;20032;-81
2022/03/28 14:50:00;;;;;;;35.20;21.80;;;;;;;23.54;30.04;101702.59;10495339;28;20495;-81
2022/03/28 14:55:01;;;;;;;26.10;19.10;;;;;;;21.81;31.96;101712.25;10482075;28;20044;-80
2022/03/28 15:00:07;;;;;;;26.23;19.50;;;;;;;22.14;32.10;101697.59;10477715;28;20112;-79
2022/03/28 15:05:08;;;;;;;35.83;22.00;;;;;;;22.63;32.22;101697.31;10480006;28;20048;-79
2022/03/28 15:10:08;;;;;;;34.83;18.40;;;;;;;22.52;31.06;101686.50;10467145;28;20086;-79
2022/03/28 15:15:09;;;;;;;31.37;18.13;;;;;;;21.71;33.16;101680.13;10492228;28;20059;-80
2022/03/28 15:20:10;;;;;;;35.33;19.83;;;;;;;21.41;35.22;101684.09;10445069;28;20043;-79
2022/03/28 15:25:10;;;;;;;29.53;15.90;;;;;;;21.65;33.60;101674.72;10474663;28;20033;-78
2022/03/28 15:30:11;;;;;;;24.85;16.92;;;;;;;20.96;32.66;101675.38;10493290;28;20162;-79
2022/03/28 15:35:15;;;;;;;28.05;18.25;;;;;;;20.19;34.71;101677.44;10478813;28;20032;-79
2022/03/28 15:40:15;;;;;;;27.50;18.00;;;;;;;19.43;37.17;101667.78;10493128;28;20029;-77
2022/03/28 15:45:19;;;;;;;26.48;17.90;;;;;;;18.93;36.92;101673.56;10506202;28;20032;-77
2022/03/28 15:50:19;;;;;;;26.13;16.65;;;;;;;18.34;37.69;101664.03;10475417;28;20098;-76
2022/03/28 15:55:20;;;;;;;27.25;16.70;;;;;;;18.24;38.55;101656.66;10452633;28;20033;-77
2022/03/28 16:00:21;;;;;;;28.80;18.05;;;;;;;17.65;40.38;101654.91;10463736;28;20060;-77
2022/03/28 16:05:23;;;;;;;31.27;18.02;;;;;;;17.18;41.61;101661.34;10482608;28;20445;-77
2022/03/28 16:10:24;;;;;;;;;;;;;;;16.97;43.47;101657.16;10467118;28;20032;-76
2022/03/28 16:15:25;;;;;;;27.98;18.00;;;;;;;16.74;43.59;101669.56;10487506;28;20279;-74
2022/03/28 16:20:27;;;;;;;27.42;17.17;;;;;;;16.68;44.36;101664.06;10471286;28;20028;-75
2022/03/28 16:25:27;;;;;;;30.80;16.27;;;;;;;16.58;44.76;101657.53;10493744;28;20448;-76
2022/03/28 16:30:30;;;;;;;24.83;15.43;;;;;;;16.30;45.83;101645.97;10489893;28;20119;-76
2022/03/28 16:35:31;;;;;;;26.50;15.40;;;;;;;15.95;46.60;101648.19;10488167;28;20124;-77
2022/03/28 16:40:35;;;;;;;33.15;19.85;;;;;;;15.54;47.65;101641.34;10473619;28;20372;-76
2022/03/28 16:45:39;;;;;;;28.17;17.92;;;;;;;15.31;48.68;101636.88;10473198;28;20032;-76
2022/03/28 16:50:43;;;;;;;26.70;16.08;;;;;;;14.96;49.86;101634.59;10484626;28;20044;-76
2022/03/28 16:55:45;;;;;;;28.98;16.67;;;;;;;14.68;50.82;101638.66;10472913;28;20047;-77
2022/03/28 17:00:46;;;;;;;27.60;17.35;;;;;;;14.35;51.55;101639.88;10471812;28;20042;-77
2022/03/28 17:05:47;;;;;;;37.90;17.17;;;;;;;14.22;51.86;101640.16;10479379;28;20108;-77
2022/03/28 17:10:48;;;;;;;30.20;16.93;;;;;;;13.96;52.74;101631.97;10502131;28;20106;-80
2022/03/28 17:15:49;;;;;;;27.70;15.82;;;;;;;13.74;53.95;101637.97;10492927;28;20037;-78
2022/03/28 17:20:49;;;;;;;41.20;17.40;;;;;;;13.48;54.44;101635.91;10501443;28;20475;-78
2022/03/28 17:25:50;;;;;;;33.88;16.15;;;;;;;13.36;54.90;101640.53;10502203;28;20027;-78
2022/03/28 17:30:51;;;;;;;25.95;15.93;;;;;;;13.11;55.31;101641.06;10501986;28;20060;-78
2022/03/28 17:35:51;;;;;;;28.33;15.63;;;;;;;12.84;56.43;101637.13;10502245;28;20032;-78
2022/03/28 17:40:52;;;;;;;30.55;16.55;;;;;;;12.71;56.66;101632.06;10501381;28;20087;-77
2022/03/28 17:45:54;;;;;;;27.15;14.50;;;;;;;12.55;57.24;101635.63;10500852;28;20111;-77
2022/03/28 17:50:58;;;;;;;24.38;13.75;;;;;;;12.27;57.83;101626.31;10502255;28;20596;-77
2022/03/28 17:55:58;;;;;;;36.38;15.93;;;;;;;12.08;57.74;101629.66;10502562;28;20068;-77
2022/03/28 18:01:01;;;;;;;27.65;15.57;;;;;;;12.00;58.53;101626.66;10482203;28;20479;-78
2022/03/28 18:06:02;;;;;;;25.92;16.42;;;;;;;11.73;59.11;101624.28;10501522;28;20040;-77
2022/03/28 18:11:03;;;;;;;27.27;13.98;;;;;;;11.53;59.66;101624.09;10500299;28;20062;-77
2022/03/28 18:16:04;;;;;;;24.88;13.70;;;;;;;11.39;60.14;101628.53;10499939;28;20098;-78
2022/03/28 18:21:04;;;;;;;23.42;15.50;;;;;;;11.00;60.90;101631.59;10464218;28;20035;-77
2022/03/28 18:26:05;;;;;;;39.75;16.83;;;;;;;10.58;62.02;101631.75;10500124;28;20109;-78
2022/03/28 18:31:05;;;;;;;27.35;15.32;;;;;;;10.26;63.24;101632.41;10449096;28;20763;-78
2022/03/28 18:36:06;;;;;;;32.60;16.50;;;;;;;10.16;63.56;101636.16;10499280;28;20059;-77
2022/03/28 18:41:07;;;;;;;27.92;14.55;;;;;;;10.10;63.91;101643.63;10465138;28;20028;-77
2022/03/28 18:46:08;;;;;;;27.70;14.55;;;;;;;9.97;63.92;101645.47;10499193;28;20024;-77
2022/03/28 18:51:09;;;;;;;26.03;15.40;;;;;;;9.96;64.45;101635.81;10499524;28;20041;-77
2022/03/28 18:56:09;;;;;;;27.50;15.60;;;;;;;9.96;64.20;101633.22;10498485;28;20032;-77
2022/03/28 19:01:13;;;;;;;32.35;15.30;;;;;;;9.91;64.38;101637.25;10498554;28;20056;-78
2022/03/28 19:06:14;;;;;;;21.90;12.55;;;;;;;10.14;63.66;101628.25;10480618;28;20036;-78
2022/03/28 19:11:17;;;;;;;27.88;16.20;;;;;;;10.17;64.10;101624.88;10481308;28;20409;-78
2022/03/28 19:16:18;;;;;;;25.85;14.63;;;;;;;10.12;64.31;101611.53;10498291;28;20103;-78
2022/03/28 19:21:18;;;;;;;31.53;16.83;;;;;;;10.17;64.46;101609.19;10499102;28;20048;-78
2022/03/28 19:26:19;;;;;;;26.23;15.80;;;;;;;9.98;64.95;101600.22;10463229;28;20064;-77
2022/03/28 19:31:20;;;;;;;24.55;14.82;;;;;;;9.77;65.84;101601.50;10497685;28;20120;-78
2022/03/28 19:36:20;;;;;;;27.38;15.63;;;;;;;9.65;66.78;101596.41;10497734;28;20094;-77
2022/03/28 19:41:21;;;;;;;28.08;15.25;;;;;;;9.52;68.74;101590.41;10497648;28;20447;-77
2022/03/28 19:46:22;;;;;;;28.33;15.85;;;;;;;9.34;69.30;101587.50;10478386;28;20031;-77
2022/03/28 19:51:22;;;;;;;30.83;14.27;;;;;;;9.26;69.15;101586.13;10495944;28;20075;-77
2022/03/28 19:56:23;;;;;;;31.02;14.35;;;;;;;9.14;69.86;101594.06;10494841;28;20033;-78
2022/03/28 20:01:26;;;;;;;24.30;13.55;;;;;;;9.06;69.18;101585.72;10495669;28;20052;-77
2022/03/28 20:06:27;;;;;;;27.05;15.23;;;;;;;9.01;70.61;101588.84;10479166;28;20411;-77
2022/03/28 20:11:28;;;;;;;33.67;16.75;;;;;;;8.93;70.34;101581.41;10495400;28;20028;-77
2022/03/28 20:16:28;;;;;;;24.95;14.20;;;;;;;8.81;69.92;101585.84;10494863;28;20483;-77
2022/03/28 20:21:29;;;;;;;31.52;15.15;;;;;;;8.70;71.25;101584.22;10460506;28;20040;-78
2022/03/28 20:26:29;;;;;;;26.90;13.35;;;;;;;8.55;71.16;101591.91;10494539;28;20065;-76
2022/03/28 20:31:30;;;;;;;24.65;15.18;;;;;;;8.43;72.19;101586.75;10477188;28;20464;-77
2022/03/28 20:36:31;;;;;;;30.30;16.95;;;;;;;8.37;72.88;101582.00;10477230;28;20116;-77
2022/03/28 20:41:31;;;;;;;26.88;15.68;;;;;;;8.29;72.98;101581.50;10494031;28;20387;-77
2022/03/28 20:46:32;;;;;;;24.88;16.42;;;;;;;8.17;73.84;101585.88;10493032;28;20116;-78
2022/03/28 20:51:32;;;;;;;33.60;17.50;;;;;;;8.02;73.89;101585.69;10477141;28;20075;-78
2022/03/28 20:56:33;;;;;;;28.35;15.85;;;;;;;7.98;75.34;101587.19;10494817;28;20025;-77
2022/03/28 21:01:33;;;;;;;24.42;13.85;;;;;;;7.91;75.00;101584.97;10493282;28;20468;-77
2022/03/28 21:06:34;;;;;;;28.92;14.82;;;;;;;7.80;74.59;101573.75;10495817;28;20048;-77
2022/03/28 21:11:36;;;;;;;33.92;17.23;;;;;;;7.69;74.55;101566.91;10493441;28;20016;-77
2022/03/28 21:16:36;;;;;;;36.75;14.80;;;;;;;7.58;75.86;101561.81;10494841;28;20513;-77
2022/03/28 21:21:37;;;;;;;27.75;15.32;;;;;;;7.44;75.26;101554.72;10477002;28;20070;-77
2022/03/28 21:26:37;;;;;;;26.48;15.18;;;;;;;7.31;76.25;101552.97;10494690;28;20055;-77
2022/03/28 21:31:37;;;;;;;29.65;16.17;;;;;;;7.26;76.85;101560.44;10474984;28;20024;-78
2022/03/28 21:36:38;;;;;;;31.38;16.50;;;;;;;7.26;76.75;101556.94;10494314;28;20036;-77
2022/03/28 21:41:39;;;;;;;34.75;15.50;;;;;;;7.16;77.17;101555.34;10477205;28;20509;-77
2022/03/28 21:46:39;;;;;;;27.83;15.85;;;;;;;7.04;76.45;101556.28;10492572;28;20098;-77
2022/03/28 21:51:40;;;;;;;29.17;17.08;;;;;;;6.93;77.13;101557.19;10494244;28;20549;-77
2022/03/28 21:56:40;;;;;;;30.80;15.65;;;;;;;6.86;77.65;101547.13;10495187;28;20086;-77
2022/03/28 22:01:40;;;;;;;29.90;16.65;;;;;;;6.78;78.46;101553.44;10500233;28;20170;-77
2022/03/28 22:06:41;;;;;;;36.35;19.13;;;;;;;6.67;78.54;101553.56;10499659;28;20037;-77
2022/03/28 22:11:42;;;;;;;38.53;17.23;;;;;;;6.64;78.92;101550.72;10448482;28;20099;-77
2022/03/28 22:16:42;;;;;;;29.55;15.48;;;;;;;6.59;79.77;101545.19;10483008;28;20025;-77
2022/03/28 22:21:43;;;;;;;31.95;17.23;;;;;;;6.58;79.79;101546.00;10499046;28;20067;-77
2022/03/28 22:26:44;;;;;;;32.78;20.33;;;;;;;6.58;80.10;101545.06;10500920;28;20040;-77
2022/03/28 22:31:44;;;;;;;35.17;17.13;;;;;;;6.52;79.70;101544.59;10499524;28;20123;-77
2022/03/28 22:36:45;;;;;;;26.60;15.02;;;;;;;6.44;80.55;101544.94;10499318;28;20123;-77
2022/03/28 22:41:45;;;;;;;33.65;15.38;;;;;;;6.37;80.53;101537.47;10498035;28;20448;-77
2022/03/28 22:46:46;;;;;;;23.08;15.25;;;;;;;6.32;81.72;101534.53;10499667;28;20079;-77